sensor_id;sensor_type;location;lat;lon;timestamp;P1;durP1;ratioP1;P2;durP2;ratioP2
49422;SDS011;36998;51.974;20.150;2022-11-12T00:02:06;20.95;;;10.02;;
49422;SDS011;36998;51.974;20.150;2022-11-12T00:04:50;24.55;;;10.10;;
49422;SDS011;36998;51.974;20.150;2022-11-12T00:07:34;21.65;;;9.55;;
49422;SDS011;36998;51.974;20.150;2022-11-12T00:10:19;20.15;;;9.40;;
49422;SDS011;36998;51.974;20.150;2022-11-12T00:13:03;23.67;;;10.35;;
49422;SDS011;36998;51.974;20.150;2022-11-12T00:15:48;23.67;;;10.57;;
49422;SDS011;36998;51.974;20.150;2022-11-12T00:18:32;20.77;;;9.93;;
49422;SDS011;36998;51.974;20.150;2022-11-12T00:21:16;22.20;;;10.07;;
49422;SDS011;36998;51.974;20.150;2022-11-12T00:24:00;24.38;;;10.40;;
49422;SDS011;36998;51.974;20.150;2022-11-12T00:26:44;22.17;;;10.40;;
49422;SDS011;36998;51.974;20.150;2022-11-12T00:29:28;17.17;;;9.40;;
49422;SDS011;36998;51.974;20.150;2022-11-12T00:32:13;22.88;;;9.88;;
49422;SDS011;36998;51.974;20.150;2022-11-12T00:34:58;23.33;;;10.93;;
49422;SDS011;36998;51.974;20.150;2022-11-12T00:37:42;23.33;;;10.52;;
49422;SDS011;36998;51.974;20.150;2022-11-12T00:40:25;23.27;;;9.55;;
49422;SDS011;36998;51.974;20.150;2022-11-12T00:43:10;28.27;;;11.43;;
49422;SDS011;36998;51.974;20.150;2022-11-12T00:45:53;29.67;;;10.80;;
49422;SDS011;36998;51.974;20.150;2022-11-12T00:48:37;23.02;;;11.48;;
49422;SDS011;36998;51.974;20.150;2022-11-12T00:51:21;22.30;;;10.82;;
49422;SDS011;36998;51.974;20.150;2022-11-12T00:54:06;22.60;;;11.07;;
49422;SDS011;36998;51.974;20.150;2022-11-12T00:56:50;22.83;;;10.50;;
49422;SDS011;36998;51.974;20.150;2022-11-12T00:59:34;25.67;;;11.57;;
49422;SDS011;36998;51.974;20.150;2022-11-12T01:02:18;28.02;;;11.88;;
49422;SDS011;36998;51.974;20.150;2022-11-12T01:05:03;27.65;;;11.27;;
49422;SDS011;36998;51.974;20.150;2022-11-12T01:07:47;30.63;;;11.00;;
49422;SDS011;36998;51.974;20.150;2022-11-12T01:10:33;23.02;;;10.13;;
49422;SDS011;36998;51.974;20.150;2022-11-12T01:13:18;27.90;;;10.52;;
49422;SDS011;36998;51.974;20.150;2022-11-12T01:16:06;23.60;;;10.77;;
49422;SDS011;36998;51.974;20.150;2022-11-12T01:18:51;26.33;;;10.05;;
49422;SDS011;36998;51.974;20.150;2022-11-12T01:21:38;22.17;;;10.00;;
49422;SDS011;36998;51.974;20.150;2022-11-12T01:24:24;21.92;;;10.65;;
49422;SDS011;36998;51.974;20.150;2022-11-12T01:27:08;24.38;;;11.05;;
49422;SDS011;36998;51.974;20.150;2022-11-12T01:29:53;29.60;;;11.27;;
49422;SDS011;36998;51.974;20.150;2022-11-12T01:32:36;25.42;;;11.40;;
49422;SDS011;36998;51.974;20.150;2022-11-12T01:35:21;25.10;;;10.68;;
49422;SDS011;36998;51.974;20.150;2022-11-12T01:38:05;27.45;;;11.35;;
49422;SDS011;36998;51.974;20.150;2022-11-12T01:40:49;27.05;;;11.95;;
49422;SDS011;36998;51.974;20.150;2022-11-12T01:43:33;28.27;;;13.18;;
49422;SDS011;36998;51.974;20.150;2022-11-12T01:46:21;29.83;;;12.75;;
49422;SDS011;36998;51.974;20.150;2022-11-12T01:49:11;23.27;;;12.48;;
49422;SDS011;36998;51.974;20.150;2022-11-12T01:52:01;31.38;;;12.40;;
49422;SDS011;36998;51.974;20.150;2022-11-12T01:54:54;27.25;;;12.30;;
49422;SDS011;36998;51.974;20.150;2022-11-12T01:57:59;25.13;;;11.05;;
49422;SDS011;36998;51.974;20.150;2022-11-12T02:00:50;29.00;;;11.70;;
49422;SDS011;36998;51.974;20.150;2022-11-12T02:03:34;27.90;;;12.27;;
49422;SDS011;36998;51.974;20.150;2022-11-12T02:06:18;29.40;;;12.20;;
49422;SDS011;36998;51.974;20.150;2022-11-12T02:09:03;25.33;;;12.00;;
49422;SDS011;36998;51.974;20.150;2022-11-12T02:11:48;29.38;;;11.70;;
49422;SDS011;36998;51.974;20.150;2022-11-12T02:14:32;29.23;;;12.48;;
49422;SDS011;36998;51.974;20.150;2022-11-12T02:17:17;24.83;;;11.35;;
49422;SDS011;36998;51.974;20.150;2022-11-12T02:20:01;28.00;;;13.18;;
49422;SDS011;36998;51.974;20.150;2022-11-12T02:22:45;28.70;;;12.82;;
49422;SDS011;36998;51.974;20.150;2022-11-12T02:25:30;32.22;;;12.10;;
49422;SDS011;36998;51.974;20.150;2022-11-12T02:28:14;27.60;;;13.63;;
49422;SDS011;36998;51.974;20.150;2022-11-12T02:31:00;35.83;;;14.38;;
49422;SDS011;36998;51.974;20.150;2022-11-12T02:33:44;31.77;;;14.32;;
49422;SDS011;36998;51.974;20.150;2022-11-12T02:36:29;33.80;;;14.27;;
49422;SDS011;36998;51.974;20.150;2022-11-12T02:39:13;36.03;;;14.77;;
49422;SDS011;36998;51.974;20.150;2022-11-12T02:41:57;31.42;;;13.98;;
49422;SDS011;36998;51.974;20.150;2022-11-12T02:44:41;30.27;;;12.70;;
49422;SDS011;36998;51.974;20.150;2022-11-12T02:47:26;37.97;;;14.50;;
49422;SDS011;36998;51.974;20.150;2022-11-12T02:50:10;30.75;;;14.55;;
49422;SDS011;36998;51.974;20.150;2022-11-12T02:52:55;28.52;;;12.70;;
49422;SDS011;36998;51.974;20.150;2022-11-12T02:55:39;30.13;;;13.43;;
49422;SDS011;36998;51.974;20.150;2022-11-12T02:58:22;33.38;;;12.88;;
49422;SDS011;36998;51.974;20.150;2022-11-12T03:01:07;28.83;;;12.85;;
49422;SDS011;36998;51.974;20.150;2022-11-12T03:03:51;29.63;;;12.85;;
49422;SDS011;36998;51.974;20.150;2022-11-12T03:06:35;31.40;;;14.88;;
49422;SDS011;36998;51.974;20.150;2022-11-12T03:09:19;29.88;;;13.32;;
49422;SDS011;36998;51.974;20.150;2022-11-12T03:12:03;35.95;;;14.65;;
49422;SDS011;36998;51.974;20.150;2022-11-12T03:14:47;36.70;;;14.88;;
49422;SDS011;36998;51.974;20.150;2022-11-12T03:17:33;34.38;;;15.00;;
49422;SDS011;36998;51.974;20.150;2022-11-12T03:20:17;33.55;;;14.85;;
49422;SDS011;36998;51.974;20.150;2022-11-12T03:23:05;36.55;;;13.68;;
49422;SDS011;36998;51.974;20.150;2022-11-12T03:25:51;36.53;;;14.60;;
49422;SDS011;36998;51.974;20.150;2022-11-12T03:28:35;41.08;;;17.08;;
49422;SDS011;36998;51.974;20.150;2022-11-12T03:31:19;32.63;;;13.82;;
49422;SDS011;36998;51.974;20.150;2022-11-12T03:34:03;31.75;;;15.20;;
49422;SDS011;36998;51.974;20.150;2022-11-12T03:36:47;32.53;;;15.30;;
49422;SDS011;36998;51.974;20.150;2022-11-12T03:39:31;39.83;;;15.48;;
49422;SDS011;36998;51.974;20.150;2022-11-12T03:42:16;42.50;;;14.65;;
49422;SDS011;36998;51.974;20.150;2022-11-12T03:44:59;41.13;;;17.02;;
49422;SDS011;36998;51.974;20.150;2022-11-12T03:47:53;31.83;;;15.63;;
49422;SDS011;36998;51.974;20.150;2022-11-12T03:50:39;37.42;;;16.30;;
49422;SDS011;36998;51.974;20.150;2022-11-12T03:53:24;36.20;;;14.85;;
49422;SDS011;36998;51.974;20.150;2022-11-12T03:56:08;31.83;;;16.50;;
49422;SDS011;36998;51.974;20.150;2022-11-12T03:58:52;36.15;;;16.27;;
49422;SDS011;36998;51.974;20.150;2022-11-12T04:01:36;39.95;;;18.27;;
49422;SDS011;36998;51.974;20.150;2022-11-12T04:04:20;32.85;;;16.52;;
49422;SDS011;36998;51.974;20.150;2022-11-12T04:07:04;33.08;;;17.92;;
49422;SDS011;36998;51.974;20.150;2022-11-12T04:10:07;34.15;;;16.80;;
49422;SDS011;36998;51.974;20.150;2022-11-12T04:12:51;35.80;;;17.30;;
49422;SDS011;36998;51.974;20.150;2022-11-12T04:19:01;35.88;;;17.50;;
49422;SDS011;36998;51.974;20.150;2022-11-12T04:22:09;34.50;;;17.42;;
49422;SDS011;36998;51.974;20.150;2022-11-12T04:24:54;34.47;;;17.58;;
49422;SDS011;36998;51.974;20.150;2022-11-12T04:27:56;32.75;;;16.00;;
49422;SDS011;36998;51.974;20.150;2022-11-12T04:30:40;34.42;;;16.60;;
49422;SDS011;36998;51.974;20.150;2022-11-12T04:33:24;37.47;;;16.38;;
49422;SDS011;36998;51.974;20.150;2022-11-12T04:36:08;39.13;;;18.38;;
49422;SDS011;36998;51.974;20.150;2022-11-12T04:38:52;43.85;;;18.67;;
49422;SDS011;36998;51.974;20.150;2022-11-12T04:41:36;39.63;;;18.23;;
49422;SDS011;36998;51.974;20.150;2022-11-12T04:44:39;35.22;;;16.70;;
49422;SDS011;36998;51.974;20.150;2022-11-12T04:47:42;41.90;;;16.60;;
49422;SDS011;36998;51.974;20.150;2022-11-12T04:50:26;40.60;;;17.27;;
49422;SDS011;36998;51.974;20.150;2022-11-12T04:53:11;38.35;;;16.98;;
49422;SDS011;36998;51.974;20.150;2022-11-12T04:55:56;41.33;;;19.10;;
49422;SDS011;36998;51.974;20.150;2022-11-12T04:58:41;40.42;;;18.40;;
49422;SDS011;36998;51.974;20.150;2022-11-12T05:01:25;38.67;;;19.40;;
49422;SDS011;36998;51.974;20.150;2022-11-12T05:04:09;38.72;;;17.88;;
49422;SDS011;36998;51.974;20.150;2022-11-12T05:06:57;40.22;;;17.95;;
49422;SDS011;36998;51.974;20.150;2022-11-12T05:09:41;48.08;;;19.23;;
49422;SDS011;36998;51.974;20.150;2022-11-12T05:12:26;38.75;;;18.92;;
49422;SDS011;36998;51.974;20.150;2022-11-12T05:15:10;46.70;;;17.05;;
49422;SDS011;36998;51.974;20.150;2022-11-12T05:17:54;43.70;;;18.00;;
49422;SDS011;36998;51.974;20.150;2022-11-12T05:20:39;44.33;;;18.67;;
49422;SDS011;36998;51.974;20.150;2022-11-12T05:23:23;43.85;;;20.63;;
49422;SDS011;36998;51.974;20.150;2022-11-12T05:26:07;41.53;;;19.35;;
49422;SDS011;36998;51.974;20.150;2022-11-12T05:28:51;47.60;;;19.77;;
49422;SDS011;36998;51.974;20.150;2022-11-12T05:31:35;44.22;;;20.30;;
49422;SDS011;36998;51.974;20.150;2022-11-12T05:34:19;40.00;;;19.63;;
49422;SDS011;36998;51.974;20.150;2022-11-12T05:37:04;47.55;;;21.10;;
49422;SDS011;36998;51.974;20.150;2022-11-12T05:39:49;40.97;;;18.92;;
49422;SDS011;36998;51.974;20.150;2022-11-12T05:42:33;42.97;;;18.73;;
49422;SDS011;36998;51.974;20.150;2022-11-12T05:45:17;42.60;;;18.95;;
49422;SDS011;36998;51.974;20.150;2022-11-12T05:48:02;48.58;;;19.75;;
49422;SDS011;36998;51.974;20.150;2022-11-12T05:50:48;54.10;;;20.13;;
49422;SDS011;36998;51.974;20.150;2022-11-12T05:53:33;45.63;;;21.38;;
49422;SDS011;36998;51.974;20.150;2022-11-12T05:56:17;53.83;;;21.73;;
49422;SDS011;36998;51.974;20.150;2022-11-12T05:59:02;45.85;;;21.05;;
49422;SDS011;36998;51.974;20.150;2022-11-12T06:01:48;44.63;;;21.02;;
49422;SDS011;36998;51.974;20.150;2022-11-12T06:04:33;45.30;;;20.58;;
49422;SDS011;36998;51.974;20.150;2022-11-12T06:07:16;44.25;;;21.05;;
49422;SDS011;36998;51.974;20.150;2022-11-12T06:10:01;42.67;;;18.33;;
49422;SDS011;36998;51.974;20.150;2022-11-12T06:12:45;44.78;;;20.35;;
49422;SDS011;36998;51.974;20.150;2022-11-12T06:15:29;43.45;;;20.92;;
49422;SDS011;36998;51.974;20.150;2022-11-12T06:18:13;45.10;;;21.17;;
49422;SDS011;36998;51.974;20.150;2022-11-12T06:21:04;50.95;;;23.27;;
49422;SDS011;36998;51.974;20.150;2022-11-12T06:24:02;50.33;;;21.13;;
49422;SDS011;36998;51.974;20.150;2022-11-12T06:26:47;45.00;;;20.88;;
49422;SDS011;36998;51.974;20.150;2022-11-12T06:29:32;46.20;;;21.92;;
49422;SDS011;36998;51.974;20.150;2022-11-12T06:32:15;43.83;;;20.98;;
49422;SDS011;36998;51.974;20.150;2022-11-12T06:35:00;51.20;;;21.90;;
49422;SDS011;36998;51.974;20.150;2022-11-12T06:37:47;45.63;;;22.10;;
49422;SDS011;36998;51.974;20.150;2022-11-12T06:40:32;44.47;;;20.73;;
49422;SDS011;36998;51.974;20.150;2022-11-12T06:43:17;40.17;;;20.85;;
49422;SDS011;36998;51.974;20.150;2022-11-12T06:46:05;39.03;;;20.08;;
49422;SDS011;36998;51.974;20.150;2022-11-12T06:48:51;35.85;;;20.02;;
49422;SDS011;36998;51.974;20.150;2022-11-12T06:51:36;45.22;;;21.58;;
49422;SDS011;36998;51.974;20.150;2022-11-12T06:54:20;48.75;;;22.60;;
49422;SDS011;36998;51.974;20.150;2022-11-12T06:57:04;42.17;;;19.33;;
49422;SDS011;36998;51.974;20.150;2022-11-12T06:59:48;42.88;;;21.95;;
49422;SDS011;36998;51.974;20.150;2022-11-12T07:02:32;36.35;;;18.98;;
49422;SDS011;36998;51.974;20.150;2022-11-12T07:05:16;44.40;;;21.95;;
49422;SDS011;36998;51.974;20.150;2022-11-12T07:08:00;45.92;;;20.40;;
49422;SDS011;36998;51.974;20.150;2022-11-12T07:10:45;42.97;;;21.13;;
49422;SDS011;36998;51.974;20.150;2022-11-12T07:13:29;45.25;;;20.88;;
49422;SDS011;36998;51.974;20.150;2022-11-12T07:16:15;54.92;;;21.45;;
49422;SDS011;36998;51.974;20.150;2022-11-12T07:19:02;42.75;;;22.08;;
49422;SDS011;36998;51.974;20.150;2022-11-12T07:21:46;45.53;;;22.27;;
49422;SDS011;36998;51.974;20.150;2022-11-12T07:24:30;40.58;;;22.30;;
49422;SDS011;36998;51.974;20.150;2022-11-12T07:27:14;46.72;;;22.90;;
49422;SDS011;36998;51.974;20.150;2022-11-12T07:29:59;47.72;;;21.60;;
49422;SDS011;36998;51.974;20.150;2022-11-12T07:32:42;55.05;;;22.33;;
49422;SDS011;36998;51.974;20.150;2022-11-12T07:35:26;55.40;;;23.98;;
49422;SDS011;36998;51.974;20.150;2022-11-12T07:38:11;45.70;;;21.88;;
49422;SDS011;36998;51.974;20.150;2022-11-12T07:41:05;47.40;;;22.75;;
49422;SDS011;36998;51.974;20.150;2022-11-12T07:43:57;44.78;;;22.60;;
49422;SDS011;36998;51.974;20.150;2022-11-12T07:46:41;44.67;;;21.85;;
49422;SDS011;36998;51.974;20.150;2022-11-12T07:49:26;47.20;;;22.92;;
49422;SDS011;36998;51.974;20.150;2022-11-12T07:52:10;40.97;;;21.98;;
49422;SDS011;36998;51.974;20.150;2022-11-12T07:54:55;43.17;;;21.90;;
49422;SDS011;36998;51.974;20.150;2022-11-12T07:57:39;42.63;;;22.10;;
49422;SDS011;36998;51.974;20.150;2022-11-12T08:00:23;47.25;;;23.20;;
49422;SDS011;36998;51.974;20.150;2022-11-12T08:03:07;49.92;;;23.88;;
49422;SDS011;36998;51.974;20.150;2022-11-12T08:05:52;48.03;;;22.50;;
49422;SDS011;36998;51.974;20.150;2022-11-12T08:08:35;54.15;;;23.52;;
49422;SDS011;36998;51.974;20.150;2022-11-12T08:11:20;50.17;;;22.88;;
49422;SDS011;36998;51.974;20.150;2022-11-12T08:14:04;47.17;;;22.98;;
49422;SDS011;36998;51.974;20.150;2022-11-12T08:16:48;39.53;;;19.40;;
49422;SDS011;36998;51.974;20.150;2022-11-12T08:19:32;44.78;;;24.80;;
49422;SDS011;36998;51.974;20.150;2022-11-12T08:22:16;45.25;;;23.15;;
49422;SDS011;36998;51.974;20.150;2022-11-12T08:25:00;54.88;;;27.20;;
49422;SDS011;36998;51.974;20.150;2022-11-12T08:27:44;50.05;;;25.52;;
49422;SDS011;36998;51.974;20.150;2022-11-12T08:30:28;42.58;;;21.95;;
49422;SDS011;36998;51.974;20.150;2022-11-12T08:33:12;51.42;;;25.20;;
49422;SDS011;36998;51.974;20.150;2022-11-12T08:35:57;52.60;;;23.95;;
49422;SDS011;36998;51.974;20.150;2022-11-12T08:38:41;51.95;;;26.30;;
49422;SDS011;36998;51.974;20.150;2022-11-12T08:41:26;53.95;;;24.70;;
49422;SDS011;36998;51.974;20.150;2022-11-12T08:44:10;49.90;;;24.55;;
49422;SDS011;36998;51.974;20.150;2022-11-12T08:46:54;64.32;;;32.28;;
49422;SDS011;36998;51.974;20.150;2022-11-12T08:49:38;48.15;;;25.80;;
49422;SDS011;36998;51.974;20.150;2022-11-12T08:52:23;52.80;;;27.45;;
49422;SDS011;36998;51.974;20.150;2022-11-12T08:55:07;54.58;;;26.67;;
49422;SDS011;36998;51.974;20.150;2022-11-12T08:57:51;50.85;;;25.15;;
49422;SDS011;36998;51.974;20.150;2022-11-12T09:00:40;55.03;;;28.48;;
49422;SDS011;36998;51.974;20.150;2022-11-12T09:03:25;60.55;;;29.30;;
49422;SDS011;36998;51.974;20.150;2022-11-12T09:06:10;60.72;;;29.08;;
49422;SDS011;36998;51.974;20.150;2022-11-12T09:08:53;65.90;;;29.08;;
49422;SDS011;36998;51.974;20.150;2022-11-12T09:11:38;58.65;;;27.95;;
49422;SDS011;36998;51.974;20.150;2022-11-12T09:14:22;56.22;;;27.73;;
49422;SDS011;36998;51.974;20.150;2022-11-12T09:17:06;58.53;;;28.13;;
49422;SDS011;36998;51.974;20.150;2022-11-12T09:19:50;65.28;;;28.77;;
49422;SDS011;36998;51.974;20.150;2022-11-12T09:22:34;60.92;;;29.27;;
49422;SDS011;36998;51.974;20.150;2022-11-12T09:25:18;59.85;;;29.65;;
49422;SDS011;36998;51.974;20.150;2022-11-12T09:28:09;62.63;;;31.98;;
49422;SDS011;36998;51.974;20.150;2022-11-12T09:30:55;63.88;;;29.48;;
49422;SDS011;36998;51.974;20.150;2022-11-12T09:33:39;60.78;;;28.98;;
49422;SDS011;36998;51.974;20.150;2022-11-12T09:36:23;57.53;;;29.98;;
49422;SDS011;36998;51.974;20.150;2022-11-12T09:39:08;55.72;;;27.95;;
49422;SDS011;36998;51.974;20.150;2022-11-12T09:41:52;57.90;;;28.30;;
49422;SDS011;36998;51.974;20.150;2022-11-12T09:44:37;52.05;;;27.25;;
49422;SDS011;36998;51.974;20.150;2022-11-12T09:47:26;60.28;;;27.70;;
49422;SDS011;36998;51.974;20.150;2022-11-12T09:50:36;58.70;;;30.52;;
49422;SDS011;36998;51.974;20.150;2022-11-12T09:53:32;70.25;;;32.45;;
49422;SDS011;36998;51.974;20.150;2022-11-12T09:56:23;54.47;;;28.85;;
49422;SDS011;36998;51.974;20.150;2022-11-12T09:59:11;57.88;;;28.77;;
49422;SDS011;36998;51.974;20.150;2022-11-12T10:01:58;54.17;;;27.98;;
49422;SDS011;36998;51.974;20.150;2022-11-12T10:04:48;50.42;;;24.55;;
49422;SDS011;36998;51.974;20.150;2022-11-12T10:11:07;41.88;;;23.02;;
49422;SDS011;36998;51.974;20.150;2022-11-12T10:21:29;46.50;;;21.88;;
49422;SDS011;36998;51.974;20.150;2022-11-12T10:24:24;44.10;;;22.30;;
49422;SDS011;36998;51.974;20.150;2022-11-12T10:27:19;46.38;;;25.20;;
49422;SDS011;36998;51.974;20.150;2022-11-12T10:30:06;41.83;;;22.65;;
49422;SDS011;36998;51.974;20.150;2022-11-12T10:32:58;40.65;;;21.92;;
49422;SDS011;36998;51.974;20.150;2022-11-12T10:35:41;46.70;;;23.95;;
49422;SDS011;36998;51.974;20.150;2022-11-12T10:38:26;39.42;;;20.55;;
49422;SDS011;36998;51.974;20.150;2022-11-12T10:41:21;43.33;;;23.95;;
49422;SDS011;36998;51.974;20.150;2022-11-12T10:44:11;45.83;;;24.15;;
49422;SDS011;36998;51.974;20.150;2022-11-12T10:53:04;46.53;;;25.35;;
49422;SDS011;36998;51.974;20.150;2022-11-12T10:55:54;40.78;;;23.92;;
49422;SDS011;36998;51.974;20.150;2022-11-12T10:58:43;54.42;;;23.92;;
49422;SDS011;36998;51.974;20.150;2022-11-12T11:01:28;45.10;;;23.80;;
49422;SDS011;36998;51.974;20.150;2022-11-12T11:04:33;46.25;;;23.83;;
49422;SDS011;36998;51.974;20.150;2022-11-12T11:07:22;48.33;;;24.77;;
49422;SDS011;36998;51.974;20.150;2022-11-12T11:10:11;48.88;;;25.10;;
49422;SDS011;36998;51.974;20.150;2022-11-12T11:16:06;56.63;;;29.02;;
49422;SDS011;36998;51.974;20.150;2022-11-12T11:19:03;51.30;;;25.75;;
49422;SDS011;36998;51.974;20.150;2022-11-12T11:30:36;41.28;;;21.38;;
49422;SDS011;36998;51.974;20.150;2022-11-12T11:33:30;37.75;;;21.02;;
49422;SDS011;36998;51.974;20.150;2022-11-12T11:36:31;42.67;;;20.95;;
49422;SDS011;36998;51.974;20.150;2022-11-12T11:39:37;42.38;;;20.80;;
49422;SDS011;36998;51.974;20.150;2022-11-12T11:42:39;44.17;;;23.83;;
49422;SDS011;36998;51.974;20.150;2022-11-12T11:52:28;51.45;;;26.33;;
49422;SDS011;36998;51.974;20.150;2022-11-12T11:58:37;47.08;;;23.05;;
49422;SDS011;36998;51.974;20.150;2022-11-12T12:01:35;40.08;;;21.15;;
49422;SDS011;36998;51.974;20.150;2022-11-12T12:04:44;40.20;;;20.42;;
49422;SDS011;36998;51.974;20.150;2022-11-12T12:11:11;41.42;;;21.80;;
49422;SDS011;36998;51.974;20.150;2022-11-12T12:14:10;42.38;;;21.02;;
49422;SDS011;36998;51.974;20.150;2022-11-12T12:20:13;43.38;;;23.27;;
49422;SDS011;36998;51.974;20.150;2022-11-12T12:23:23;45.65;;;23.45;;
49422;SDS011;36998;51.974;20.150;2022-11-12T12:26:13;48.90;;;24.13;;
49422;SDS011;36998;51.974;20.150;2022-11-12T12:29:18;43.38;;;23.17;;
49422;SDS011;36998;51.974;20.150;2022-11-12T12:32:36;47.35;;;23.35;;
49422;SDS011;36998;51.974;20.150;2022-11-12T12:35:34;49.03;;;23.13;;
49422;SDS011;36998;51.974;20.150;2022-11-12T12:38:24;43.95;;;21.83;;
49422;SDS011;36998;51.974;20.150;2022-11-12T12:41:29;40.92;;;20.88;;
49422;SDS011;36998;51.974;20.150;2022-11-12T12:44:20;41.38;;;22.88;;
49422;SDS011;36998;51.974;20.150;2022-11-12T12:47:06;35.05;;;20.13;;
49422;SDS011;36998;51.974;20.150;2022-11-12T12:49:54;42.40;;;20.85;;
49422;SDS011;36998;51.974;20.150;2022-11-12T12:52:59;37.92;;;19.63;;
49422;SDS011;36998;51.974;20.150;2022-11-12T12:55:49;36.72;;;19.15;;
49422;SDS011;36998;51.974;20.150;2022-11-12T12:58:41;37.25;;;19.08;;
49422;SDS011;36998;51.974;20.150;2022-11-12T13:01:28;38.50;;;20.25;;
49422;SDS011;36998;51.974;20.150;2022-11-12T13:04:14;41.42;;;22.40;;
49422;SDS011;36998;51.974;20.150;2022-11-12T13:06:59;36.13;;;18.55;;
49422;SDS011;36998;51.974;20.150;2022-11-12T13:09:43;38.10;;;19.38;;
49422;SDS011;36998;51.974;20.150;2022-11-12T13:12:59;35.05;;;19.42;;
49422;SDS011;36998;51.974;20.150;2022-11-12T13:15:53;39.78;;;20.17;;
49422;SDS011;36998;51.974;20.150;2022-11-12T13:21:23;33.13;;;18.80;;
49422;SDS011;36998;51.974;20.150;2022-11-12T13:24:08;35.78;;;18.73;;
49422;SDS011;36998;51.974;20.150;2022-11-12T13:26:58;33.63;;;15.93;;
49422;SDS011;36998;51.974;20.150;2022-11-12T13:29:44;32.33;;;18.42;;
49422;SDS011;36998;51.974;20.150;2022-11-12T13:38:14;32.42;;;16.05;;
49422;SDS011;36998;51.974;20.150;2022-11-12T13:41:16;33.33;;;16.98;;
49422;SDS011;36998;51.974;20.150;2022-11-12T13:44:22;36.63;;;18.40;;
49422;SDS011;36998;51.974;20.150;2022-11-12T13:47:15;37.42;;;20.02;;
49422;SDS011;36998;51.974;20.150;2022-11-12T13:50:05;39.90;;;20.67;;
49422;SDS011;36998;51.974;20.150;2022-11-12T13:52:51;36.63;;;19.65;;
49422;SDS011;36998;51.974;20.150;2022-11-12T13:55:36;41.75;;;21.63;;
49422;SDS011;36998;51.974;20.150;2022-11-12T13:58:34;36.50;;;18.90;;
49422;SDS011;36998;51.974;20.150;2022-11-12T14:01:19;36.85;;;17.35;;
49422;SDS011;36998;51.974;20.150;2022-11-12T14:04:05;36.20;;;18.63;;
49422;SDS011;36998;51.974;20.150;2022-11-12T14:07:05;39.22;;;19.23;;
49422;SDS011;36998;51.974;20.150;2022-11-12T14:10:23;40.47;;;19.17;;
49422;SDS011;36998;51.974;20.150;2022-11-12T14:13:23;43.28;;;19.48;;
49422;SDS011;36998;51.974;20.150;2022-11-12T14:16:37;41.47;;;19.60;;
49422;SDS011;36998;51.974;20.150;2022-11-12T14:19:50;42.83;;;20.58;;
49422;SDS011;36998;51.974;20.150;2022-11-12T14:22:46;39.88;;;18.95;;
49422;SDS011;36998;51.974;20.150;2022-11-12T14:25:30;39.80;;;19.50;;
49422;SDS011;36998;51.974;20.150;2022-11-12T14:28:28;41.50;;;20.20;;
49422;SDS011;36998;51.974;20.150;2022-11-12T14:31:14;36.88;;;20.63;;
49422;SDS011;36998;51.974;20.150;2022-11-12T14:34:40;41.63;;;20.65;;
49422;SDS011;36998;51.974;20.150;2022-11-12T14:37:15;41.20;;;20.92;;
49422;SDS011;36998;51.974;20.150;2022-11-12T14:40:19;42.05;;;22.33;;
49422;SDS011;36998;51.974;20.150;2022-11-12T14:43:03;44.95;;;21.55;;
49422;SDS011;36998;51.974;20.150;2022-11-12T14:45:48;43.22;;;20.27;;
49422;SDS011;36998;51.974;20.150;2022-11-12T14:48:34;47.45;;;22.70;;
49422;SDS011;36998;51.974;20.150;2022-11-12T14:51:29;53.67;;;25.58;;
49422;SDS011;36998;51.974;20.150;2022-11-12T14:54:39;50.55;;;24.60;;
49422;SDS011;36998;51.974;20.150;2022-11-12T14:57:27;47.95;;;23.85;;
49422;SDS011;36998;51.974;20.150;2022-11-12T15:00:20;44.30;;;21.77;;
49422;SDS011;36998;51.974;20.150;2022-11-12T15:03:14;48.58;;;22.48;;
49422;SDS011;36998;51.974;20.150;2022-11-12T15:08:54;44.50;;;22.80;;
49422;SDS011;36998;51.974;20.150;2022-11-12T15:11:46;46.83;;;23.35;;
49422;SDS011;36998;51.974;20.150;2022-11-12T15:14:32;44.22;;;20.83;;
49422;SDS011;36998;51.974;20.150;2022-11-12T15:20:14;47.00;;;23.88;;
49422;SDS011;36998;51.974;20.150;2022-11-12T15:23:00;50.28;;;22.60;;
49422;SDS011;36998;51.974;20.150;2022-11-12T15:25:44;39.78;;;20.90;;
49422;SDS011;36998;51.974;20.150;2022-11-12T15:28:30;40.40;;;19.30;;
49422;SDS011;36998;51.974;20.150;2022-11-12T15:31:18;37.72;;;19.65;;
49422;SDS011;36998;51.974;20.150;2022-11-12T15:40:02;40.58;;;19.95;;
49422;SDS011;36998;51.974;20.150;2022-11-12T15:42:54;44.47;;;20.83;;
49422;SDS011;36998;51.974;20.150;2022-11-12T15:45:38;49.90;;;22.92;;
49422;SDS011;36998;51.974;20.150;2022-11-12T15:48:22;50.00;;;25.00;;
49422;SDS011;36998;51.974;20.150;2022-11-12T15:51:10;45.78;;;22.33;;
49422;SDS011;36998;51.974;20.150;2022-11-12T15:53:58;39.45;;;20.35;;
49422;SDS011;36998;51.974;20.150;2022-11-12T15:56:42;46.85;;;22.90;;
49422;SDS011;36998;51.974;20.150;2022-11-12T15:59:26;52.33;;;24.15;;
49422;SDS011;36998;51.974;20.150;2022-11-12T16:02:11;47.38;;;22.63;;
49422;SDS011;36998;51.974;20.150;2022-11-12T16:04:56;45.78;;;21.20;;
49422;SDS011;36998;51.974;20.150;2022-11-12T16:07:40;39.75;;;21.08;;
49422;SDS011;36998;51.974;20.150;2022-11-12T16:10:25;52.63;;;22.85;;
49422;SDS011;36998;51.974;20.150;2022-11-12T16:13:16;49.17;;;23.90;;
49422;SDS011;36998;51.974;20.150;2022-11-12T16:16:06;49.63;;;22.15;;
49422;SDS011;36998;51.974;20.150;2022-11-12T16:18:51;48.70;;;24.63;;
49422;SDS011;36998;51.974;20.150;2022-11-12T16:21:35;54.80;;;26.38;;
49422;SDS011;36998;51.974;20.150;2022-11-12T16:24:19;45.60;;;24.20;;
49422;SDS011;36998;51.974;20.150;2022-11-12T16:27:03;51.13;;;24.77;;
49422;SDS011;36998;51.974;20.150;2022-11-12T16:29:50;48.95;;;25.55;;
49422;SDS011;36998;51.974;20.150;2022-11-12T16:32:35;49.92;;;26.27;;
49422;SDS011;36998;51.974;20.150;2022-11-12T16:35:19;58.00;;;27.80;;
49422;SDS011;36998;51.974;20.150;2022-11-12T16:38:07;54.15;;;28.92;;
49422;SDS011;36998;51.974;20.150;2022-11-12T16:40:55;50.00;;;27.42;;
49422;SDS011;36998;51.974;20.150;2022-11-12T16:43:39;58.60;;;28.88;;
49422;SDS011;36998;51.974;20.150;2022-11-12T16:46:29;56.47;;;28.88;;
49422;SDS011;36998;51.974;20.150;2022-11-12T16:49:17;59.67;;;30.52;;
49422;SDS011;36998;51.974;20.150;2022-11-12T16:52:01;62.75;;;28.70;;
49422;SDS011;36998;51.974;20.150;2022-11-12T16:54:46;55.88;;;29.80;;
49422;SDS011;36998;51.974;20.150;2022-11-12T16:57:29;62.15;;;29.90;;
49422;SDS011;36998;51.974;20.150;2022-11-12T17:00:15;58.85;;;28.42;;
49422;SDS011;36998;51.974;20.150;2022-11-12T17:03:00;59.78;;;30.13;;
49422;SDS011;36998;51.974;20.150;2022-11-12T17:05:49;67.88;;;31.00;;
49422;SDS011;36998;51.974;20.150;2022-11-12T17:08:35;67.57;;;31.20;;
49422;SDS011;36998;51.974;20.150;2022-11-12T17:11:19;52.85;;;26.23;;
49422;SDS011;36998;51.974;20.150;2022-11-12T17:14:04;53.10;;;27.08;;
49422;SDS011;36998;51.974;20.150;2022-11-12T17:16:48;53.95;;;26.60;;